sensor_id;sensor_type;location;lat;lon;timestamp;P1;durP1;ratioP1;P2;durP2;ratioP2
44026;SDS011;29696;55.698;37.460;2023-04-25T00:01:47;12.40;;;6.13;;
44026;SDS011;29696;55.698;37.460;2023-04-25T00:04:14;15.37;;;6.07;;
44026;SDS011;29696;55.698;37.460;2023-04-25T00:06:41;22.27;;;6.33;;
44026;SDS011;29696;55.698;37.460;2023-04-25T00:09:08;10.43;;;5.70;;
44026;SDS011;29696;55.698;37.460;2023-04-25T00:11:36;11.67;;;5.67;;
44026;SDS011;29696;55.698;37.460;2023-04-25T00:14:03;10.33;;;5.50;;
44026;SDS011;29696;55.698;37.460;2023-04-25T00:16:30;11.00;;;6.47;;
44026;SDS011;29696;55.698;37.460;2023-04-25T00:19:00;11.60;;;6.03;;
44026;SDS011;29696;55.698;37.460;2023-04-25T00:21:29;15.20;;;5.50;;
44026;SDS011;29696;55.698;37.460;2023-04-25T00:23:57;10.30;;;6.33;;
44026;SDS011;29696;55.698;37.460;2023-04-25T00:26:23;8.53;;;4.77;;
44026;SDS011;29696;55.698;37.460;2023-04-25T00:28:50;17.53;;;6.50;;
44026;SDS011;29696;55.698;37.460;2023-04-25T00:31:17;15.83;;;6.90;;
44026;SDS011;29696;55.698;37.460;2023-04-25T00:33:43;9.60;;;6.20;;
44026;SDS011;29696;55.698;37.460;2023-04-25T00:36:09;9.70;;;6.13;;
44026;SDS011;29696;55.698;37.460;2023-04-25T00:38:37;10.07;;;5.40;;
44026;SDS011;29696;55.698;37.460;2023-04-25T00:41:05;19.73;;;6.43;;
44026;SDS011;29696;55.698;37.460;2023-04-25T00:43:33;9.40;;;4.60;;
44026;SDS011;29696;55.698;37.460;2023-04-25T00:46:02;10.87;;;4.13;;
44026;SDS011;29696;55.698;37.460;2023-04-25T00:48:28;8.20;;;3.90;;
44026;SDS011;29696;55.698;37.460;2023-04-25T00:50:57;7.43;;;3.70;;
44026;SDS011;29696;55.698;37.460;2023-04-25T00:53:25;8.47;;;5.07;;
44026;SDS011;29696;55.698;37.460;2023-04-25T00:55:53;8.27;;;4.23;;
44026;SDS011;29696;55.698;37.460;2023-04-25T00:58:21;15.97;;;5.13;;
44026;SDS011;29696;55.698;37.460;2023-04-25T01:00:49;11.23;;;5.13;;
44026;SDS011;29696;55.698;37.460;2023-04-25T01:03:18;10.93;;;4.50;;
44026;SDS011;29696;55.698;37.460;2023-04-25T01:05:46;10.43;;;4.80;;
44026;SDS011;29696;55.698;37.460;2023-04-25T01:08:13;12.00;;;5.33;;
44026;SDS011;29696;55.698;37.460;2023-04-25T01:10:40;8.07;;;4.27;;
44026;SDS011;29696;55.698;37.460;2023-04-25T01:13:07;9.63;;;6.10;;
44026;SDS011;29696;55.698;37.460;2023-04-25T01:15:34;8.87;;;4.93;;
44026;SDS011;29696;55.698;37.460;2023-04-25T01:18:02;17.90;;;6.70;;
44026;SDS011;29696;55.698;37.460;2023-04-25T01:20:29;10.57;;;5.13;;
44026;SDS011;29696;55.698;37.460;2023-04-25T01:22:58;9.23;;;4.83;;
44026;SDS011;29696;55.698;37.460;2023-04-25T01:25:25;5.97;;;4.90;;
44026;SDS011;29696;55.698;37.460;2023-04-25T01:27:52;9.00;;;6.00;;
44026;SDS011;29696;55.698;37.460;2023-04-25T01:30:19;9.60;;;5.20;;
44026;SDS011;29696;55.698;37.460;2023-04-25T01:32:46;10.67;;;5.10;;
44026;SDS011;29696;55.698;37.460;2023-04-25T01:35:14;12.13;;;6.90;;
44026;SDS011;29696;55.698;37.460;2023-04-25T01:37:41;9.63;;;4.83;;
44026;SDS011;29696;55.698;37.460;2023-04-25T01:40:10;12.07;;;5.37;;
44026;SDS011;29696;55.698;37.460;2023-04-25T01:42:39;13.17;;;4.97;;
44026;SDS011;29696;55.698;37.460;2023-04-25T01:45:08;12.53;;;5.93;;
44026;SDS011;29696;55.698;37.460;2023-04-25T01:47:37;7.90;;;4.90;;
44026;SDS011;29696;55.698;37.460;2023-04-25T01:50:05;13.50;;;7.67;;
44026;SDS011;29696;55.698;37.460;2023-04-25T01:52:34;12.23;;;5.43;;
44026;SDS011;29696;55.698;37.460;2023-04-25T01:55:02;12.70;;;6.33;;
44026;SDS011;29696;55.698;37.460;2023-04-25T01:57:31;8.63;;;5.00;;
44026;SDS011;29696;55.698;37.460;2023-04-25T02:00:01;8.90;;;5.13;;
44026;SDS011;29696;55.698;37.460;2023-04-25T02:02:39;9.13;;;5.47;;
44026;SDS011;29696;55.698;37.460;2023-04-25T02:05:12;13.67;;;6.03;;
44026;SDS011;29696;55.698;37.460;2023-04-25T02:07:40;15.70;;;6.23;;
44026;SDS011;29696;55.698;37.460;2023-04-25T02:10:06;9.70;;;5.60;;
44026;SDS011;29696;55.698;37.460;2023-04-25T02:12:38;12.27;;;5.67;;
44026;SDS011;29696;55.698;37.460;2023-04-25T02:15:17;9.13;;;5.17;;
44026;SDS011;29696;55.698;37.460;2023-04-25T02:18:17;9.87;;;5.40;;
44026;SDS011;29696;55.698;37.460;2023-04-25T02:20:44;12.57;;;6.13;;
44026;SDS011;29696;55.698;37.460;2023-04-25T02:23:11;13.73;;;5.60;;
44026;SDS011;29696;55.698;37.460;2023-04-25T02:25:38;11.47;;;6.40;;
44026;SDS011;29696;55.698;37.460;2023-04-25T02:28:04;13.83;;;5.63;;
44026;SDS011;29696;55.698;37.460;2023-04-25T02:30:31;12.60;;;6.10;;
44026;SDS011;29696;55.698;37.460;2023-04-25T02:32:57;12.67;;;6.00;;
44026;SDS011;29696;55.698;37.460;2023-04-25T02:35:23;9.77;;;6.13;;
44026;SDS011;29696;55.698;37.460;2023-04-25T02:37:53;11.53;;;4.93;;
44026;SDS011;29696;55.698;37.460;2023-04-25T02:40:20;11.57;;;5.10;;
44026;SDS011;29696;55.698;37.460;2023-04-25T02:42:46;10.37;;;6.27;;
44026;SDS011;29696;55.698;37.460;2023-04-25T02:45:13;10.90;;;6.87;;
44026;SDS011;29696;55.698;37.460;2023-04-25T02:47:40;11.17;;;5.80;;
44026;SDS011;29696;55.698;37.460;2023-04-25T02:50:07;14.40;;;6.40;;
44026;SDS011;29696;55.698;37.460;2023-04-25T02:52:34;9.77;;;5.50;;
44026;SDS011;29696;55.698;37.460;2023-04-25T02:55:15;13.97;;;6.20;;
44026;SDS011;29696;55.698;37.460;2023-04-25T02:57:43;10.80;;;5.83;;
44026;SDS011;29696;55.698;37.460;2023-04-25T03:00:14;12.57;;;6.83;;
44026;SDS011;29696;55.698;37.460;2023-04-25T03:02:41;14.53;;;6.00;;
44026;SDS011;29696;55.698;37.460;2023-04-25T03:05:07;13.23;;;6.00;;
44026;SDS011;29696;55.698;37.460;2023-04-25T03:07:35;15.57;;;6.37;;
44026;SDS011;29696;55.698;37.460;2023-04-25T03:10:02;16.17;;;6.57;;
44026;SDS011;29696;55.698;37.460;2023-04-25T03:12:33;7.87;;;5.17;;
44026;SDS011;29696;55.698;37.460;2023-04-25T03:14:59;11.47;;;6.70;;
44026;SDS011;29696;55.698;37.460;2023-04-25T03:17:26;8.77;;;5.73;;
44026;SDS011;29696;55.698;37.460;2023-04-25T03:19:52;7.40;;;5.27;;
44026;SDS011;29696;55.698;37.460;2023-04-25T03:22:19;16.10;;;8.07;;
44026;SDS011;29696;55.698;37.460;2023-04-25T03:24:45;18.33;;;6.87;;
44026;SDS011;29696;55.698;37.460;2023-04-25T03:27:13;7.93;;;5.60;;
44026;SDS011;29696;55.698;37.460;2023-04-25T03:29:40;18.27;;;6.17;;
44026;SDS011;29696;55.698;37.460;2023-04-25T03:32:07;10.13;;;6.03;;
44026;SDS011;29696;55.698;37.460;2023-04-25T03:34:33;12.00;;;6.10;;
44026;SDS011;29696;55.698;37.460;2023-04-25T03:36:59;19.63;;;7.23;;
44026;SDS011;29696;55.698;37.460;2023-04-25T03:39:26;12.82;;;6.97;;
44026;SDS011;29696;55.698;37.460;2023-04-25T03:41:53;13.45;;;6.63;;
44026;SDS011;29696;55.698;37.460;2023-04-25T03:44:20;11.02;;;6.30;;
44026;SDS011;29696;55.698;37.460;2023-04-25T03:46:47;13.80;;;7.60;;
44026;SDS011;29696;55.698;37.460;2023-04-25T03:49:14;10.05;;;6.35;;
44026;SDS011;29696;55.698;37.460;2023-04-25T03:51:55;10.63;;;7.28;;
44026;SDS011;29696;55.698;37.460;2023-04-25T03:54:22;16.30;;;6.50;;
44026;SDS011;29696;55.698;37.460;2023-04-25T03:57:03;12.48;;;7.68;;
44026;SDS011;29696;55.698;37.460;2023-04-25T03:59:33;13.95;;;6.60;;
44026;SDS011;29696;55.698;37.460;2023-04-25T04:02:00;14.60;;;7.45;;
44026;SDS011;29696;55.698;37.460;2023-04-25T04:04:27;11.05;;;6.63;;
44026;SDS011;29696;55.698;37.460;2023-04-25T04:06:53;15.07;;;7.93;;
44026;SDS011;29696;55.698;37.460;2023-04-25T04:09:29;12.20;;;6.95;;
44026;SDS011;29696;55.698;37.460;2023-04-25T04:11:58;9.50;;;7.35;;
44026;SDS011;29696;55.698;37.460;2023-04-25T04:14:24;15.45;;;7.05;;
44026;SDS011;29696;55.698;37.460;2023-04-25T04:16:51;13.00;;;7.65;;
44026;SDS011;29696;55.698;37.460;2023-04-25T04:19:18;11.05;;;7.90;;
44026;SDS011;29696;55.698;37.460;2023-04-25T04:21:52;10.20;;;6.57;;
44026;SDS011;29696;55.698;37.460;2023-04-25T04:24:18;14.05;;;8.52;;
44026;SDS011;29696;55.698;37.460;2023-04-25T04:26:51;10.57;;;7.57;;
44026;SDS011;29696;55.698;37.460;2023-04-25T04:29:40;11.65;;;7.45;;
44026;SDS011;29696;55.698;37.460;2023-04-25T04:32:30;14.82;;;8.52;;
44026;SDS011;29696;55.698;37.460;2023-04-25T04:34:59;16.10;;;7.32;;
44026;SDS011;29696;55.698;37.460;2023-04-25T04:37:26;23.63;;;7.97;;
44026;SDS011;29696;55.698;37.460;2023-04-25T04:39:52;14.65;;;7.57;;
44026;SDS011;29696;55.698;37.460;2023-04-25T04:42:31;21.23;;;7.60;;
44026;SDS011;29696;55.698;37.460;2023-04-25T04:45:16;15.18;;;7.72;;
44026;SDS011;29696;55.698;37.460;2023-04-25T04:47:46;16.02;;;6.75;;
44026;SDS011;29696;55.698;37.460;2023-04-25T04:50:33;18.65;;;8.23;;
44026;SDS011;29696;55.698;37.460;2023-04-25T04:53:18;20.48;;;8.38;;
44026;SDS011;29696;55.698;37.460;2023-04-25T04:56:03;14.25;;;7.60;;
44026;SDS011;29696;55.698;37.460;2023-04-25T04:58:48;16.42;;;7.97;;
44026;SDS011;29696;55.698;37.460;2023-04-25T05:01:54;16.10;;;7.18;;
44026;SDS011;29696;55.698;37.460;2023-04-25T05:04:27;16.40;;;8.68;;
44026;SDS011;29696;55.698;37.460;2023-04-25T05:07:19;16.27;;;6.97;;
44026;SDS011;29696;55.698;37.460;2023-04-25T05:10:12;19.27;;;7.88;;
44026;SDS011;29696;55.698;37.460;2023-04-25T05:13:05;16.25;;;7.20;;
44026;SDS011;29696;55.698;37.460;2023-04-25T05:16:03;13.80;;;6.72;;
44026;SDS011;29696;55.698;37.460;2023-04-25T05:18:36;14.07;;;8.15;;
44026;SDS011;29696;55.698;37.460;2023-04-25T05:21:07;13.23;;;7.10;;
44026;SDS011;29696;55.698;37.460;2023-04-25T05:23:59;14.07;;;6.93;;
44026;SDS011;29696;55.698;37.460;2023-04-25T05:26:55;10.90;;;5.03;;
44026;SDS011;29696;55.698;37.460;2023-04-25T05:29:48;14.90;;;6.43;;
44026;SDS011;29696;55.698;37.460;2023-04-25T05:32:30;25.33;;;7.47;;
44026;SDS011;29696;55.698;37.460;2023-04-25T05:34:56;19.63;;;6.18;;
44026;SDS011;29696;55.698;37.460;2023-04-25T05:37:30;14.05;;;6.50;;
44026;SDS011;29696;55.698;37.460;2023-04-25T05:40:06;16.98;;;6.45;;
44026;SDS011;29696;55.698;37.460;2023-04-25T05:42:49;14.52;;;5.93;;
44026;SDS011;29696;55.698;37.460;2023-04-25T05:45:42;12.77;;;5.65;;
44026;SDS011;29696;55.698;37.460;2023-04-25T05:48:27;9.05;;;5.20;;
44026;SDS011;29696;55.698;37.460;2023-04-25T05:51:00;12.02;;;5.68;;
44026;SDS011;29696;55.698;37.460;2023-04-25T05:53:59;10.95;;;5.38;;
44026;SDS011;29696;55.698;37.460;2023-04-25T05:56:26;7.22;;;4.80;;
44026;SDS011;29696;55.698;37.460;2023-04-25T05:58:53;7.53;;;5.40;;
44026;SDS011;29696;55.698;37.460;2023-04-25T06:01:21;6.07;;;4.50;;
44026;SDS011;29696;55.698;37.460;2023-04-25T06:03:48;17.15;;;4.85;;
44026;SDS011;29696;55.698;37.460;2023-04-25T06:06:17;16.02;;;4.57;;
44026;SDS011;29696;55.698;37.460;2023-04-25T06:08:43;10.40;;;5.55;;
44026;SDS011;29696;55.698;37.460;2023-04-25T06:11:11;13.10;;;4.82;;
44026;SDS011;29696;55.698;37.460;2023-04-25T06:13:37;11.10;;;4.70;;
44026;SDS011;29696;55.698;37.460;2023-04-25T06:16:04;19.75;;;5.47;;
44026;SDS011;29696;55.698;37.460;2023-04-25T06:18:31;13.40;;;5.03;;
44026;SDS011;29696;55.698;37.460;2023-04-25T06:20:57;10.40;;;6.22;;
44026;SDS011;29696;55.698;37.460;2023-04-25T06:23:25;18.23;;;5.55;;
44026;SDS011;29696;55.698;37.460;2023-04-25T06:25:57;8.77;;;5.28;;
44026;SDS011;29696;55.698;37.460;2023-04-25T06:28:25;16.38;;;5.90;;
44026;SDS011;29696;55.698;37.460;2023-04-25T06:30:51;5.32;;;4.55;;
44026;SDS011;29696;55.698;37.460;2023-04-25T06:33:19;12.48;;;4.55;;
44026;SDS011;29696;55.698;37.460;2023-04-25T06:35:48;12.50;;;6.88;;
44026;SDS011;29696;55.698;37.460;2023-04-25T06:38:17;13.27;;;5.30;;
44026;SDS011;29696;55.698;37.460;2023-04-25T06:40:47;13.52;;;4.97;;
44026;SDS011;29696;55.698;37.460;2023-04-25T06:43:14;19.02;;;4.75;;
44026;SDS011;29696;55.698;37.460;2023-04-25T06:45:59;9.35;;;4.95;;
44026;SDS011;29696;55.698;37.460;2023-04-25T06:48:29;18.98;;;5.20;;
44026;SDS011;29696;55.698;37.460;2023-04-25T06:50:55;12.30;;;6.15;;
44026;SDS011;29696;55.698;37.460;2023-04-25T06:53:23;19.85;;;6.18;;
44026;SDS011;29696;55.698;37.460;2023-04-25T06:55:55;6.45;;;4.63;;
44026;SDS011;29696;55.698;37.460;2023-04-25T06:58:23;14.20;;;4.78;;
44026;SDS011;29696;55.698;37.460;2023-04-25T07:01:19;9.25;;;4.00;;
44026;SDS011;29696;55.698;37.460;2023-04-25T07:03:45;10.10;;;4.30;;
44026;SDS011;29696;55.698;37.460;2023-04-25T07:06:16;10.00;;;4.18;;
44026;SDS011;29696;55.698;37.460;2023-04-25T07:08:43;9.60;;;3.95;;
44026;SDS011;29696;55.698;37.460;2023-04-25T07:11:10;3.50;;;3.13;;
44026;SDS011;29696;55.698;37.460;2023-04-25T07:13:36;8.15;;;3.90;;
44026;SDS011;29696;55.698;37.460;2023-04-25T07:16:03;7.25;;;4.90;;
44026;SDS011;29696;55.698;37.460;2023-04-25T07:18:33;5.70;;;4.13;;
44026;SDS011;29696;55.698;37.460;2023-04-25T07:21:00;7.68;;;4.07;;
44026;SDS011;29696;55.698;37.460;2023-04-25T07:23:27;24.35;;;4.35;;
44026;SDS011;29696;55.698;37.460;2023-04-25T07:25:54;5.70;;;3.67;;
44026;SDS011;29696;55.698;37.460;2023-04-25T07:28:24;5.13;;;4.15;;
44026;SDS011;29696;55.698;37.460;2023-04-25T07:30:50;9.40;;;4.15;;
44026;SDS011;29696;55.698;37.460;2023-04-25T07:33:17;13.07;;;5.20;;
44026;SDS011;29696;55.698;37.460;2023-04-25T07:35:46;7.80;;;3.90;;
44026;SDS011;29696;55.698;37.460;2023-04-25T07:38:13;8.80;;;4.10;;
44026;SDS011;29696;55.698;37.460;2023-04-25T07:40:40;7.22;;;3.72;;
44026;SDS011;29696;55.698;37.460;2023-04-25T07:43:08;9.68;;;4.70;;
44026;SDS011;29696;55.698;37.460;2023-04-25T07:45:48;12.63;;;4.18;;
44026;SDS011;29696;55.698;37.460;2023-04-25T07:48:17;10.10;;;3.70;;
44026;SDS011;29696;55.698;37.460;2023-04-25T07:50:47;12.57;;;4.85;;
44026;SDS011;29696;55.698;37.460;2023-04-25T07:53:14;9.93;;;5.63;;
44026;SDS011;29696;55.698;37.460;2023-04-25T07:55:50;14.98;;;4.55;;
44026;SDS011;29696;55.698;37.460;2023-04-25T07:58:18;14.82;;;6.00;;
44026;SDS011;29696;55.698;37.460;2023-04-25T08:00:49;14.43;;;5.57;;
44026;SDS011;29696;55.698;37.460;2023-04-25T08:03:35;9.55;;;5.38;;
44026;SDS011;29696;55.698;37.460;2023-04-25T08:06:05;16.25;;;5.68;;
44026;SDS011;29696;55.698;37.460;2023-04-25T08:08:37;10.93;;;5.75;;
44026;SDS011;29696;55.698;37.460;2023-04-25T08:11:04;13.15;;;7.00;;
44026;SDS011;29696;55.698;37.460;2023-04-25T08:13:30;15.15;;;5.07;;
44026;SDS011;29696;55.698;37.460;2023-04-25T08:15:58;8.98;;;4.15;;
44026;SDS011;29696;55.698;37.460;2023-04-25T08:18:24;12.75;;;4.65;;
44026;SDS011;29696;55.698;37.460;2023-04-25T08:20:51;15.13;;;5.13;;
44026;SDS011;29696;55.698;37.460;2023-04-25T08:23:17;9.73;;;4.22;;
44026;SDS011;29696;55.698;37.460;2023-04-25T08:25:52;14.68;;;5.25;;
44026;SDS011;29696;55.698;37.460;2023-04-25T08:28:22;12.82;;;4.97;;
44026;SDS011;29696;55.698;37.460;2023-04-25T08:30:48;15.43;;;6.40;;
44026;SDS011;29696;55.698;37.460;2023-04-25T08:33:17;23.17;;;5.22;;
44026;SDS011;29696;55.698;37.460;2023-04-25T08:36:06;13.23;;;5.80;;
44026;SDS011;29696;55.698;37.460;2023-04-25T08:38:33;16.83;;;4.75;;
44026;SDS011;29696;55.698;37.460;2023-04-25T08:41:01;9.48;;;5.10;;
44026;SDS011;29696;55.698;37.460;2023-04-25T08:43:28;19.40;;;6.30;;
44026;SDS011;29696;55.698;37.460;2023-04-25T08:46:00;7.13;;;4.53;;
44026;SDS011;29696;55.698;37.460;2023-04-25T08:48:35;8.85;;;4.20;;
44026;SDS011;29696;55.698;37.460;2023-04-25T08:51:04;10.57;;;4.82;;
44026;SDS011;29696;55.698;37.460;2023-04-25T08:53:34;10.50;;;4.45;;
44026;SDS011;29696;55.698;37.460;2023-04-25T08:56:03;11.77;;;5.25;;
44026;SDS011;29696;55.698;37.460;2023-04-25T08:58:35;10.20;;;4.38;;
44026;SDS011;29696;55.698;37.460;2023-04-25T09:01:02;12.50;;;5.05;;
44026;SDS011;29696;55.698;37.460;2023-04-25T09:03:35;10.07;;;3.88;;
44026;SDS011;29696;55.698;37.460;2023-04-25T09:06:02;11.02;;;5.22;;
44026;SDS011;29696;55.698;37.460;2023-04-25T09:08:29;12.13;;;4.63;;
44026;SDS011;29696;55.698;37.460;2023-04-25T09:10:56;6.03;;;3.72;;
44026;SDS011;29696;55.698;37.460;2023-04-25T09:13:28;8.32;;;3.88;;
44026;SDS011;29696;55.698;37.460;2023-04-25T09:16:30;8.40;;;4.25;;
44026;SDS011;29696;55.698;37.460;2023-04-25T09:19:21;9.77;;;4.60;;
44026;SDS011;29696;55.698;37.460;2023-04-25T09:22:01;13.98;;;4.82;;
44026;SDS011;29696;55.698;37.460;2023-04-25T09:24:33;18.83;;;4.80;;
44026;SDS011;29696;55.698;37.460;2023-04-25T09:27:04;11.88;;;4.22;;
44026;SDS011;29696;55.698;37.460;2023-04-25T09:29:35;7.30;;;4.35;;
44026;SDS011;29696;55.698;37.460;2023-04-25T09:32:11;8.70;;;3.97;;
44026;SDS011;29696;55.698;37.460;2023-04-25T09:35:01;8.27;;;3.92;;
44026;SDS011;29696;55.698;37.460;2023-04-25T09:37:30;7.40;;;4.22;;
44026;SDS011;29696;55.698;37.460;2023-04-25T09:40:32;9.27;;;4.15;;
44026;SDS011;29696;55.698;37.460;2023-04-25T09:43:10;9.50;;;4.20;;
44026;SDS011;29696;55.698;37.460;2023-04-25T09:45:47;7.47;;;4.13;;
44026;SDS011;29696;55.698;37.460;2023-04-25T09:51:09;10.55;;;4.28;;
44026;SDS011;29696;55.698;37.460;2023-04-25T09:53:39;14.63;;;4.00;;
44026;SDS011;29696;55.698;37.460;2023-04-25T09:56:16;9.50;;;3.30;;
44026;SDS011;29696;55.698;37.460;2023-04-25T09:58:42;13.80;;;5.05;;
44026;SDS011;29696;55.698;37.460;2023-04-25T10:01:10;7.93;;;4.00;;
44026;SDS011;29696;55.698;37.460;2023-04-25T10:03:48;10.45;;;3.80;;
44026;SDS011;29696;55.698;37.460;2023-04-25T10:06:49;8.77;;;3.63;;
44026;SDS011;29696;55.698;37.460;2023-04-25T10:09:19;11.65;;;4.28;;
44026;SDS011;29696;55.698;37.460;2023-04-25T10:11:47;6.78;;;2.58;;
44026;SDS011;29696;55.698;37.460;2023-04-25T10:14:17;7.85;;;3.22;;
44026;SDS011;29696;55.698;37.460;2023-04-25T10:16:44;4.40;;;2.95;;
44026;SDS011;29696;55.698;37.460;2023-04-25T10:19:13;7.90;;;3.15;;
44026;SDS011;29696;55.698;37.460;2023-04-25T10:21:48;8.98;;;3.63;;
44026;SDS011;29696;55.698;37.460;2023-04-25T10:24:19;4.50;;;3.53;;
44026;SDS011;29696;55.698;37.460;2023-04-25T10:26:46;9.07;;;4.47;;
44026;SDS011;29696;55.698;37.460;2023-04-25T10:29:21;6.10;;;3.38;;
44026;SDS011;29696;55.698;37.460;2023-04-25T10:31:49;8.48;;;4.47;;
44026;SDS011;29696;55.698;37.460;2023-04-25T10:34:17;6.93;;;4.75;;
44026;SDS011;29696;55.698;37.460;2023-04-25T10:36:49;5.63;;;4.07;;
44026;SDS011;29696;55.698;37.460;2023-04-25T10:39:26;5.82;;;4.07;;
44026;SDS011;29696;55.698;37.460;2023-04-25T10:41:55;8.68;;;4.13;;
44026;SDS011;29696;55.698;37.460;2023-04-25T10:44:26;4.68;;;4.10;;
44026;SDS011;29696;55.698;37.460;2023-04-25T10:46:56;4.38;;;3.95;;
44026;SDS011;29696;55.698;37.460;2023-04-25T10:49:29;4.60;;;3.78;;
44026;SDS011;29696;55.698;37.460;2023-04-25T10:52:17;5.82;;;3.80;;
44026;SDS011;29696;55.698;37.460;2023-04-25T10:54:55;8.07;;;3.80;;
44026;SDS011;29696;55.698;37.460;2023-04-25T10:57:32;7.05;;;4.70;;
44026;SDS011;29696;55.698;37.460;2023-04-25T11:00:10;6.45;;;4.32;;
44026;SDS011;29696;55.698;37.460;2023-04-25T11:02:43;7.88;;;4.07;;
44026;SDS011;29696;55.698;37.460;2023-04-25T11:05:31;5.82;;;4.45;;
44026;SDS011;29696;55.698;37.460;2023-04-25T11:07:59;4.55;;;3.35;;
44026;SDS011;29696;55.698;37.460;2023-04-25T11:13:13;21.75;;;4.80;;
44026;SDS011;29696;55.698;37.460;2023-04-25T11:15:40;7.10;;;4.15;;
44026;SDS011;29696;55.698;37.460;2023-04-25T11:18:06;8.50;;;2.92;;
44026;SDS011;29696;55.698;37.460;2023-04-25T11:20:33;10.65;;;4.32;;
44026;SDS011;29696;55.698;37.460;2023-04-25T11:22:59;8.27;;;4.05;;
44026;SDS011;29696;55.698;37.460;2023-04-25T11:25:26;7.22;;;3.38;;
44026;SDS011;29696;55.698;37.460;2023-04-25T11:27:53;11.90;;;4.18;;
44026;SDS011;29696;55.698;37.460;2023-04-25T11:30:20;10.52;;;4.57;;
44026;SDS011;29696;55.698;37.460;2023-04-25T11:32:48;8.48;;;3.42;;
44026;SDS011;29696;55.698;37.460;2023-04-25T11:35:14;5.38;;;3.38;;
44026;SDS011;29696;55.698;37.460;2023-04-25T11:37:41;7.45;;;3.03;;
44026;SDS011;29696;55.698;37.460;2023-04-25T11:40:09;7.85;;;3.47;;
44026;SDS011;29696;55.698;37.460;2023-04-25T11:42:37;8.27;;;2.63;;
44026;SDS011;29696;55.698;37.460;2023-04-25T11:45:05;4.30;;;3.00;;
44026;SDS011;29696;55.698;37.460;2023-04-25T11:47:33;5.03;;;3.10;;
44026;SDS011;29696;55.698;37.460;2023-04-25T11:50:00;7.93;;;3.65;;
44026;SDS011;29696;55.698;37.460;2023-04-25T11:52:37;6.50;;;2.50;;
44026;SDS011;29696;55.698;37.460;2023-04-25T11:55:12;4.38;;;2.65;;
44026;SDS011;29696;55.698;37.460;2023-04-25T11:57:43;9.70;;;2.78;;
44026;SDS011;29696;55.698;37.460;2023-04-25T12:00:14;4.38;;;3.25;;
44026;SDS011;29696;55.698;37.460;2023-04-25T12:02:44;9.55;;;3.25;;
44026;SDS011;29696;55.698;37.460;2023-04-25T12:05:18;7.38;;;3.53;;
44026;SDS011;29696;55.698;37.460;2023-04-25T12:07:46;9.02;;;3.28;;
44026;SDS011;29696;55.698;37.460;2023-04-25T12:10:13;5.28;;;2.83;;
44026;SDS011;29696;55.698;37.460;2023-04-25T12:12:41;5.80;;;2.53;;
44026;SDS011;29696;55.698;37.460;2023-04-25T12:17:59;4.10;;;2.67;;
44026;SDS011;29696;55.698;37.460;2023-04-25T12:20:28;8.95;;;2.72;;
44026;SDS011;29696;55.698;37.460;2023-04-25T12:22:57;4.53;;;2.88;;
44026;SDS011;29696;55.698;37.460;2023-04-25T12:25:39;12.18;;;3.00;;
44026;SDS011;29696;55.698;37.460;2023-04-25T12:28:14;8.45;;;3.70;;
44026;SDS011;29696;55.698;37.460;2023-04-25T12:30:53;5.03;;;2.20;;
44026;SDS011;29696;55.698;37.460;2023-04-25T12:33:33;10.00;;;2.38;;
44026;SDS011;29696;55.698;37.460;2023-04-25T12:36:02;5.40;;;2.72;;
44026;SDS011;29696;55.698;37.460;2023-04-25T12:38:38;3.58;;;2.58;;
44026;SDS011;29696;55.698;37.460;2023-04-25T12:41:06;8.50;;;3.78;;
44026;SDS011;29696;55.698;37.460;2023-04-25T12:43:33;8.45;;;3.08;;
44026;SDS011;29696;55.698;37.460;2023-04-25T12:46:00;7.15;;;2.50;;
44026;SDS011;29696;55.698;37.460;2023-04-25T12:48:27;10.43;;;3.13;;
44026;SDS011;29696;55.698;37.460;2023-04-25T12:50:54;5.57;;;2.20;;
44026;SDS011;29696;55.698;37.460;2023-04-25T12:53:21;4.63;;;3.30;;
44026;SDS011;29696;55.698;37.460;2023-04-25T12:55:49;11.90;;;3.15;;
44026;SDS011;29696;55.698;37.460;2023-04-25T12:58:17;6.53;;;2.83;;
44026;SDS011;29696;55.698;37.460;2023-04-25T13:00:45;7.68;;;2.75;;
44026;SDS011;29696;55.698;37.460;2023-04-25T13:03:12;5.60;;;2.35;;
44026;SDS011;29696;55.698;37.460;2023-04-25T13:05:39;7.78;;;3.15;;
44026;SDS011;29696;55.698;37.460;2023-04-25T13:08:05;10.23;;;2.95;;
44026;SDS011;29696;55.698;37.460;2023-04-25T13:10:32;14.00;;;3.00;;
44026;SDS011;29696;55.698;37.460;2023-04-25T13:13:00;5.63;;;3.15;;
44026;SDS011;29696;55.698;37.460;2023-04-25T13:15:27;6.40;;;3.33;;
44026;SDS011;29696;55.698;37.460;2023-04-25T13:17:54;7.47;;;2.72;;
44026;SDS011;29696;55.698;37.460;2023-04-25T13:20:21;10.38;;;2.70;;
44026;SDS011;29696;55.698;37.460;2023-04-25T13:22:48;7.93;;;2.97;;
44026;SDS011;29696;55.698;37.460;2023-04-25T13:25:15;8.07;;;3.75;;
44026;SDS011;29696;55.698;37.460;2023-04-25T13:27:42;12.48;;;3.75;;
44026;SDS011;29696;55.698;37.460;2023-04-25T13:30:10;7.25;;;3.20;;
44026;SDS011;29696;55.698;37.460;2023-04-25T13:32:37;4.97;;;2.63;;
44026;SDS011;29696;55.698;37.460;2023-04-25T13:35:05;6.93;;;2.97;;
44026;SDS011;29696;55.698;37.460;2023-04-25T13:37:34;11.15;;;3.97;;
44026;SDS011;29696;55.698;37.460;2023-04-25T13:40:02;5.47;;;2.60;;
44026;SDS011;29696;55.698;37.460;2023-04-25T13:42:32;9.50;;;2.97;;
44026;SDS011;29696;55.698;37.460;2023-04-25T13:44:58;6.50;;;2.95;;
44026;SDS011;29696;55.698;37.460;2023-04-25T13:47:25;6.10;;;3.30;;
44026;SDS011;29696;55.698;37.460;2023-04-25T13:49:52;10.65;;;3.55;;
44026;SDS011;29696;55.698;37.460;2023-04-25T13:52:19;8.65;;;4.10;;
44026;SDS011;29696;55.698;37.460;2023-04-25T13:54:46;16.83;;;4.30;;
44026;SDS011;29696;55.698;37.460;2023-04-25T13:57:12;8.50;;;4.05;;
44026;SDS011;29696;55.698;37.460;2023-04-25T13:59:39;11.23;;;3.67;;
44026;SDS011;29696;55.698;37.460;2023-04-25T14:02:07;4.72;;;3.50;;
44026;SDS011;29696;55.698;37.460;2023-04-25T14:04:33;7.50;;;3.15;;
44026;SDS011;29696;55.698;37.460;2023-04-25T14:07:00;8.60;;;3.83;;
44026;SDS011;29696;55.698;37.460;2023-04-25T14:09:28;6.97;;;3.53;;
44026;SDS011;29696;55.698;37.460;2023-04-25T14:11:55;6.97;;;3.20;;
44026;SDS011;29696;55.698;37.460;2023-04-25T14:14:22;6.63;;;3.88;;
44026;SDS011;29696;55.698;37.460;2023-04-25T14:16:50;13.90;;;5.05;;
44026;SDS011;29696;55.698;37.460;2023-04-25T14:19:20;7.78;;;3.30;;
44026;SDS011;29696;55.698;37.460;2023-04-25T14:21:46;7.32;;;3.63;;
44026;SDS011;29696;55.698;37.460;2023-04-25T14:24:13;6.40;;;4.07;;
44026;SDS011;29696;55.698;37.460;2023-04-25T14:26:40;11.60;;;4.28;;
44026;SDS011;29696;55.698;37.460;2023-04-25T14:29:06;7.55;;;4.25;;
44026;SDS011;29696;55.698;37.460;2023-04-25T14:31:34;5.75;;;4.13;;
44026;SDS011;29696;55.698;37.460;2023-04-25T14:34:01;13.20;;;4.53;;
44026;SDS011;29696;55.698;37.460;2023-04-25T14:36:28;5.40;;;3.40;;
44026;SDS011;29696;55.698;37.460;2023-04-25T14:38:55;5.60;;;3.72;;
44026;SDS011;29696;55.698;37.460;2023-04-25T14:41:21;6.95;;;3.25;;
44026;SDS011;29696;55.698;37.460;2023-04-25T14:43:48;14.27;;;3.63;;
44026;SDS011;29696;55.698;37.460;2023-04-25T14:46:15;6.15;;;3.47;;
44026;SDS011;29696;55.698;37.460;2023-04-25T14:48:41;10.98;;;4.43;;
44026;SDS011;29696;55.698;37.460;2023-04-25T14:51:08;5.75;;;3.17;;
44026;SDS011;29696;55.698;37.460;2023-04-25T14:53:34;7.90;;;5.05;;
44026;SDS011;29696;55.698;37.460;2023-04-25T14:56:01;7.97;;;4.38;;
44026;SDS011;29696;55.698;37.460;2023-04-25T14:58:27;5.07;;;3.65;;